Share

Ровно, Украина

25 04, 2014 08:50 EEST (GMT +0300)
Rivne (UKLR) В.н.у.м. 758 ft | 50.58 °N, 26.13 °E | Change Station

Current weather conditions updated 20 minutes ago

Mostly Cloudy
Облачно
48 °F
Ощущается Как 48 °F
С
16
Ветер переменчевый Ветер от В-ЮВ
Восход Солнца 6:01 AM
Закат Солнца 8:26 PM
Луна Убывающий полумесяц

Сегодня, по прогнозам,почти такая же температура как вчера.

Давление 30.15 дюймов
Видимость 6.2 милиь
Облачность Немного 3000 ft
Облачно 10000 ft
Точка Росы 36 °F
Влажность воздуха 62%
Дождь 0.00 дюймов
Глубина снега Нет в наличии.
УФ 1 из 16
Пыльца Нет в наличии.
Качество воздуха Нет в наличии.
Flu Activity Нет в наличии.
METAR UKLR 250530Z 12007MPS 9999 FEW030 BKN100 09/02 Q1021 12090070 NOSIG

More Conditions Fewer Conditions

Давление 30.15 дюймов
Видимость 6.2 милиь
Облачность Немного 3000 ft
Облачно 10000 ft
Точка Росы 36 °F
Влажность воздуха 62%
Дождь 0.00 дюймов
Глубина снега Нет в наличии.
УФ 1 из 16
Пыльца Нет в наличии.
Качество воздуха Нет в наличии.
Flu Activity Нет в наличии.
METAR UKLR 250530Z 12007MPS 9999 FEW030 BKN100 09/02 Q1021 12090070 NOSIG

More Conditions Fewer Conditions

10-Day Weather Forecast

Almanac

Астрономические явления

Apr. 25, 2014 Восход Закат
Настоящее время 6:01 AM EEST 8:26 PM EEST
Гражданские сумерки 5:25 AM EEST 9:02 PM EEST
Навигационные сумерки 4:40 AM EEST 9:48 PM EEST
Астрономические сумерки 3:47 AM EEST 10:41 PM EEST
Луна 4:06 AM EEST 4:02 PM EEST
Длительность светового времени 15h 36m
Продолжительность Дня
14h 24m
Tomorrow will be 3m 31s longer.
Убывающий полумесяц, 19% of the Moon is Illuminated
Сегодня
Убывающий полумесяц
Aпр 29
Новая
Май 6
Первая четверть
Май 14
Полнолуние
Май 21
Четвертая четверть

Вчерашние Экстремумы

Country Highs Country Lows

Community

  • Deer in evening light
    Deer in evening light
  • Critter
    Critter
  • Jone Runs Falls
    Jone Runs Falls
  • Easter in Shenandoah National Park
    Easter in Shenandoah National Park
  • Sunset at Apalachicola Bay, Florida
    Sunset at Apalachicola Bay, Florida

WunderPhotos

Upload Photos

1,704,861 фотографии загружены!

WunderBlogs® & News

Nearby

Качество воздуха

Not available.

Глубина Снега

Not available.

Температура Прибрежных Вод

Место Температура
Нет зарегистрированных станций

Сейсмическая активность

Город Distance Mag. Time & Date
No recent earthquake activity has been reported nearby.
Minimum magnitude displayed is 2.5.

Ближайшие Погодные Станции

Нет личных метеостанций в этой области.

What do you think?

We're not finished. Please let us know what you like, what you don't like, and what you are still missing.